createdAt,value
2023-02-19T00:05:00.996Z,101556.53
2023-02-19T00:07:42.285Z,101556.59
2023-02-19T00:10:26.850Z,101529.53
2023-02-19T00:13:03.250Z,101543.59
2023-02-19T00:15:42.917Z,101537.72
2023-02-19T00:18:10.020Z,101550.59
2023-02-19T00:20:49.953Z,101541.25
2023-02-19T00:23:19.200Z,101549.88
2023-02-19T00:25:53.063Z,101534.19
2023-02-19T00:28:20.510Z,101544.72
2023-02-19T00:30:57.649Z,101566.19
2023-02-19T00:33:31.960Z,101565.63
2023-02-19T00:36:03.543Z,101564.56
2023-02-19T00:38:49.911Z,101537.16
2023-02-19T00:41:28.002Z,101561.06
2023-02-19T00:44:01.025Z,101545.19
2023-02-19T00:46:37.007Z,101543.31
2023-02-19T00:49:06.021Z,101533.44
2023-02-19T00:51:42.931Z,101543.03
2023-02-19T00:54:12.068Z,101559.34
2023-02-19T00:56:46.057Z,101551.88
2023-02-19T00:59:19.879Z,101560.00
2023-02-19T01:01:47.171Z,101560.97
2023-02-19T01:04:21.876Z,101545.97
2023-02-19T01:06:58.188Z,101566.19
2023-02-19T01:09:31.980Z,101554.22
2023-02-19T01:12:01.416Z,101537.88
2023-02-19T01:14:34.946Z,101537.81
2023-02-19T01:17:05.216Z,101537.81
2023-02-19T01:22:20.906Z,101539.50
2023-02-19T01:24:54.975Z,101555.66
2023-02-19T01:27:22.192Z,101550.53
2023-02-19T01:29:55.955Z,101551.56
2023-02-19T01:32:24.608Z,101565.06
2023-02-19T01:35:00.946Z,101542.34
2023-02-19T01:37:28.908Z,101551.38
2023-02-19T01:39:58.826Z,101558.97
2023-02-19T01:42:31.938Z,101540.16
2023-02-19T01:45:32.972Z,101567.50
2023-02-19T01:48:19.953Z,101564.09
2023-02-19T01:51:03.003Z,101559.91
2023-02-19T01:53:43.963Z,101542.06
2023-02-19T01:56:20.965Z,101553.19
2023-02-19T01:58:58.059Z,101552.59
2023-02-19T02:11:10.499Z,101561.81
2023-02-19T02:13:48.396Z,101570.66
2023-02-19T02:16:15.562Z,101564.47
2023-02-19T02:19:34.932Z,101555.28
2023-02-19T02:22:38.240Z,101575.81
2023-02-19T02:25:21.945Z,101587.47
2023-02-19T02:28:03.959Z,101568.56
2023-02-19T02:31:03.585Z,101570.00
2023-02-19T02:33:48.949Z,101583.50
2023-02-19T02:36:27.282Z,101553.47
2023-02-19T02:39:06.171Z,101566.56
2023-02-19T02:41:34.489Z,101571.06
2023-02-19T02:44:07.948Z,101556.44
2023-02-19T02:46:43.902Z,101576.06
2023-02-19T02:49:26.963Z,101562.56
2023-02-19T02:52:02.128Z,101562.00
2023-02-19T02:54:54.408Z,101566.34
2023-02-19T02:57:27.994Z,101555.06
2023-02-19T03:00:09.471Z,101561.25
2023-02-19T03:02:37.998Z,101576.31
2023-02-19T03:05:49.054Z,101582.41
2023-02-19T03:08:51.048Z,101566.09
2023-02-19T03:11:50.111Z,101575.66
2023-02-19T03:17:59.077Z,101602.84
2023-02-19T03:20:33.977Z,101584.78
2023-02-19T03:23:02.334Z,101598.66
2023-02-19T03:26:01.184Z,101616.69
2023-02-19T03:28:51.541Z,101623.81
2023-02-19T03:31:29.149Z,101598.16
2023-02-19T03:34:06.066Z,101598.22
2023-02-19T03:39:34.004Z,101608.84
2023-02-19T03:42:15.958Z,101611.63
2023-02-19T03:44:57.992Z,101616.75
2023-02-19T03:47:26.702Z,101614.56
2023-02-19T03:50:01.068Z,101643.81
2023-02-19T03:52:46.293Z,101640.28
2023-02-19T03:55:29.951Z,101630.41
2023-02-19T03:58:12.978Z,101647.78
2023-02-19T04:01:21.050Z,101620.13
2023-02-19T04:04:40.887Z,101651.22
2023-02-19T04:07:17.029Z,101644.91
2023-02-19T04:09:54.980Z,101667.25
2023-02-19T04:12:30.046Z,101639.94
2023-02-19T04:15:10.533Z,101641.75
2023-02-19T04:17:55.042Z,101649.72
2023-02-19T04:20:27.757Z,101680.69
2023-02-19T04:23:02.046Z,101677.66
2023-02-19T04:25:39.965Z,101680.41
2023-02-19T04:28:16.008Z,101680.31
2023-02-19T04:30:50.029Z,101677.13
2023-02-19T04:33:17.403Z,101697.69
2023-02-19T04:35:51.083Z,101681.66
2023-02-19T04:38:20.874Z,101702.34
2023-02-19T04:40:55.053Z,101702.84
2023-02-19T04:43:22.160Z,101705.91
2023-02-19T04:45:57.095Z,101684.75
2023-02-19T04:48:24.242Z,101705.72
2023-02-19T04:51:01.024Z,101692.91
2023-02-19T04:53:38.081Z,101721.38
2023-02-19T04:56:18.134Z,101705.22
2023-02-19T04:58:53.017Z,101709.53
2023-02-19T05:01:27.053Z,101703.97
2023-02-19T05:03:54.438Z,101737.50
2023-02-19T05:06:27.985Z,101713.63
2023-02-19T05:09:08.123Z,101729.31
2023-02-19T05:11:35.365Z,101732.31
2023-02-19T05:17:53.115Z,101766.91
2023-02-19T05:20:20.457Z,101767.88
2023-02-19T05:22:48.757Z,101751.00
2023-02-19T05:25:25.078Z,101737.03
2023-02-19T05:28:19.127Z,101741.47
2023-02-19T05:30:58.046Z,101754.50
2023-02-19T05:33:26.436Z,101777.03
2023-02-19T05:36:01.999Z,101781.56
2023-02-19T05:38:29.142Z,101774.81
2023-02-19T05:41:23.093Z,101775.06
2023-02-19T05:43:52.733Z,101762.97
2023-02-19T05:46:30.151Z,101760.47
2023-02-19T05:48:58.554Z,101789.81
2023-02-19T05:51:36.138Z,101785.44
2023-02-19T05:54:04.362Z,101756.31
2023-02-19T05:56:53.022Z,101788.06
2023-02-19T05:59:22.617Z,101761.59
2023-02-19T06:01:58.160Z,101777.28
2023-02-19T06:04:25.434Z,101795.19
2023-02-19T06:06:59.075Z,101780.03
2023-02-19T06:09:32.844Z,101775.72
2023-02-19T06:12:06.036Z,101805.97
2023-02-19T06:14:40.072Z,101795.63
2023-02-19T06:17:07.608Z,101815.81
2023-02-19T08:01:54.146Z,102004.06
2023-02-19T08:04:21.051Z,102013.94
2023-02-19T08:06:54.085Z,102021.75
2023-02-19T08:09:26.636Z,102041.97
2023-02-19T14:09:26.501Z,102430.81
2023-02-19T14:12:09.739Z,102430.50
2023-02-19T14:14:53.343Z,102420.53
2023-02-19T14:17:52.303Z,102399.72
2023-02-19T14:20:49.228Z,102421.19
2023-02-19T14:23:23.452Z,102399.78
2023-02-19T14:26:06.269Z,102404.94
2023-02-19T14:28:48.262Z,102424.03
2023-02-19T14:31:43.283Z,102393.69
2023-02-19T14:34:33.321Z,102413.31
2023-02-19T14:37:02.346Z,102377.13
2023-02-19T14:39:45.265Z,102381.53
2023-02-19T14:42:25.468Z,102401.22
2023-02-19T14:45:04.290Z,102377.56
2023-02-19T14:47:37.367Z,102347.69
2023-02-19T14:50:15.839Z,102329.81
2023-02-19T14:52:49.218Z,102350.47
2023-02-19T14:55:32.285Z,102339.19
2023-02-19T14:58:06.978Z,102348.31
2023-02-19T15:00:44.360Z,102361.63
2023-02-19T15:03:42.508Z,102343.19
2023-02-19T15:06:23.286Z,102353.81
2023-02-19T15:08:58.936Z,102355.03
2023-02-19T15:11:35.329Z,102350.16
2023-02-19T15:14:05.879Z,102352.06
2023-02-19T15:16:42.284Z,102347.09
2023-02-19T15:19:17.232Z,102342.53
2023-02-19T15:21:47.972Z,102378.22
2023-02-19T15:24:23.371Z,102348.41
2023-02-19T15:26:57.320Z,102360.09
2023-02-19T15:29:33.445Z,102366.38
2023-02-19T15:32:02.466Z,102367.88
2023-02-19T15:34:39.355Z,102365.56
2023-02-19T15:37:09.671Z,102388.19
2023-02-19T15:39:53.435Z,102372.22
2023-02-19T15:42:24.556Z,102392.31
2023-02-19T15:45:13.325Z,102403.47
2023-02-19T15:47:58.298Z,102384.84
2023-02-19T15:50:36.285Z,102414.41
2023-02-19T15:53:24.391Z,102388.63
2023-02-19T15:56:01.368Z,102395.56
2023-02-19T15:58:47.324Z,102398.34
2023-02-19T16:01:34.367Z,102381.13
2023-02-19T16:04:02.208Z,102399.41
2023-02-19T16:06:37.410Z,102375.41
2023-02-19T16:09:06.200Z,102370.09
2023-02-19T16:11:46.342Z,102378.72
2023-02-19T16:14:25.084Z,102402.13
2023-02-19T16:17:03.295Z,102376.69
2023-02-19T16:19:51.391Z,102392.56
2023-02-19T16:22:28.408Z,102421.41
2023-02-19T16:25:06.929Z,102425.28
2023-02-19T16:27:46.346Z,102451.28
2023-02-19T16:30:16.371Z,102435.72
2023-02-19T16:32:54.278Z,102418.53
2023-02-19T16:35:40.116Z,102419.19
2023-02-19T16:38:24.311Z,102411.56
2023-02-19T16:40:51.836Z,102442.63
2023-02-19T16:43:38.317Z,102446.34
2023-02-19T16:46:09.746Z,102444.59
2023-02-19T16:48:43.495Z,102417.34
2023-02-19T16:51:24.422Z,102427.16
2023-02-19T16:53:58.413Z,102429.03
2023-02-19T16:56:32.432Z,102450.72
2023-02-19T16:59:06.410Z,102461.25
2023-02-19T17:01:41.562Z,102472.59
2023-02-19T17:04:18.318Z,102435.59
2023-02-19T17:06:52.319Z,102460.03
2023-02-19T17:09:19.274Z,102454.78
2023-02-19T17:11:52.514Z,102447.75
2023-02-19T17:14:19.769Z,102437.56
2023-02-19T17:17:02.191Z,102480.97
2023-02-19T17:19:29.479Z,102449.84
2023-02-19T17:22:05.982Z,102462.16
2023-02-19T17:24:33.068Z,102442.19
2023-02-19T17:27:06.387Z,102454.50
2023-02-19T17:29:40.407Z,102463.19
2023-02-19T17:32:10.562Z,102451.25
2023-02-19T17:34:44.380Z,102459.94
2023-02-19T17:37:11.263Z,102457.50
2023-02-19T17:39:44.300Z,102473.88
2023-02-19T17:42:11.709Z,102458.31
2023-02-19T17:44:45.348Z,102482.50
2023-02-19T17:47:12.450Z,102477.44
2023-02-19T17:49:48.314Z,102456.66
2023-02-19T17:52:17.783Z,102472.31
2023-02-19T17:54:51.313Z,102462.06
2023-02-19T17:57:19.691Z,102468.28
2023-02-19T17:59:53.388Z,102505.38
2023-02-19T18:02:20.590Z,102479.63
2023-02-19T18:04:54.350Z,102462.25
2023-02-19T18:07:21.491Z,102482.16
2023-02-19T18:09:55.533Z,102467.56
2023-02-19T18:12:29.351Z,102516.94
2023-02-19T18:15:03.452Z,102498.88
2023-02-19T18:17:30.402Z,102496.56
2023-02-19T18:20:04.306Z,102490.44
2023-02-19T18:22:32.362Z,102501.66
2023-02-19T18:25:06.368Z,102474.88
2023-02-19T18:27:39.380Z,102514.63
2023-02-19T18:30:07.594Z,102498.25
2023-02-19T18:32:44.415Z,102515.72
2023-02-19T18:35:11.755Z,102502.00
2023-02-19T18:37:45.565Z,102526.41
2023-02-19T18:40:13.029Z,102498.78
2023-02-19T18:42:47.424Z,102501.31
2023-02-19T18:45:14.910Z,102504.09
2023-02-19T18:47:48.414Z,102497.44
2023-02-19T18:50:23.416Z,102510.41
2023-02-19T18:52:50.365Z,102492.19
2023-02-19T18:55:24.457Z,102507.81
2023-02-19T18:57:51.602Z,102505.16
2023-02-19T19:00:32.455Z,102502.84
2023-02-19T19:03:06.334Z,102488.91
2023-02-19T19:05:40.413Z,102504.50
2023-02-19T19:08:07.305Z,102502.84
2023-02-19T19:10:41.506Z,102497.69
2023-02-19T19:13:08.463Z,102481.31
2023-02-19T19:15:42.465Z,102480.22
2023-02-19T19:18:09.426Z,102461.91
2023-02-19T19:20:43.331Z,102471.53
2023-02-19T19:23:16.459Z,102500.97
2023-02-19T19:25:50.424Z,102483.91
2023-02-19T19:28:17.489Z,102480.50
2023-02-19T19:30:51.367Z,102491.91
2023-02-19T19:33:24.526Z,102472.88
2023-02-19T19:35:51.638Z,102492.97
2023-02-19T19:38:25.453Z,102486.88
2023-02-19T19:40:52.359Z,102537.34
2023-02-19T19:43:25.458Z,102500.16
2023-02-19T19:45:52.548Z,102518.59
2023-02-19T19:48:26.338Z,102541.91
2023-02-19T19:50:53.943Z,102501.31
2023-02-19T19:53:27.378Z,102511.72
2023-02-19T19:55:54.426Z,102548.91
2023-02-19T19:58:31.557Z,102515.94
2023-02-19T20:01:06.151Z,102521.16
2023-02-19T20:03:40.366Z,102526.38
2023-02-19T20:06:07.536Z,102501.38
2023-02-19T20:08:41.497Z,102536.72
2023-02-19T20:11:15.451Z,102508.16
2023-02-19T20:13:52.173Z,102509.19
2023-02-19T20:16:34.482Z,102516.06
2023-02-19T20:19:01.633Z,102546.63
2023-02-19T20:21:35.400Z,102524.19
2023-02-19T20:24:03.344Z,102514.47
2023-02-19T20:26:38.363Z,102524.13
2023-02-19T20:29:06.341Z,102486.78
2023-02-19T20:31:40.668Z,102498.97
2023-02-19T20:34:08.053Z,102502.38
2023-02-19T20:36:49.455Z,102495.84
2023-02-19T20:39:27.464Z,102523.94
2023-02-19T20:42:01.447Z,102503.34
2023-02-19T20:44:36.560Z,102529.13
2023-02-19T20:47:14.549Z,102494.66
2023-02-19T20:49:56.500Z,102504.34
2023-02-19T20:52:31.571Z,102512.09
2023-02-19T20:55:01.637Z,102498.22
2023-02-19T20:57:28.753Z,102514.53
2023-02-19T21:00:02.416Z,102509.34
2023-02-19T21:02:29.591Z,102519.50
2023-02-19T21:05:04.608Z,102478.88
2023-02-19T21:07:31.902Z,102492.81
2023-02-19T21:10:05.446Z,102480.50
2023-02-19T21:12:33.847Z,102486.13
2023-02-19T21:15:07.416Z,102516.47
2023-02-19T21:17:34.729Z,102472.31
2023-02-19T21:20:08.525Z,102508.81
2023-02-19T21:22:35.713Z,102465.63
2023-02-19T21:25:09.413Z,102466.59
2023-02-19T21:27:37.202Z,102475.16
2023-02-19T21:30:12.546Z,102499.44
2023-02-19T21:32:46.432Z,102482.28
2023-02-19T21:35:19.488Z,102497.97
2023-02-19T21:37:53.522Z,102488.50
2023-02-19T21:40:25.078Z,102473.03
2023-02-19T21:42:58.433Z,102474.97
2023-02-19T21:45:25.435Z,102502.66
2023-02-19T21:47:59.471Z,102484.69
2023-02-19T21:50:26.502Z,102495.84
2023-02-19T21:53:00.516Z,102518.41
2023-02-19T21:55:28.985Z,102512.47
2023-02-19T21:58:02.447Z,102507.53
2023-02-19T22:00:35.750Z,102490.16
2023-02-19T22:03:23.468Z,102508.66
2023-02-19T22:05:57.528Z,102492.28
2023-02-19T22:08:31.569Z,102492.47
2023-02-19T22:10:58.538Z,102503.16
2023-02-19T22:13:25.560Z,102506.84
2023-02-19T22:15:59.656Z,102530.34
2023-02-19T22:18:26.762Z,102523.47
2023-02-19T22:21:00.526Z,102526.88
2023-02-19T22:23:27.490Z,102531.38
2023-02-19T22:26:01.421Z,102522.19
2023-02-19T22:28:28.531Z,102524.72
2023-02-19T22:30:55.645Z,102527.16
2023-02-19T22:33:30.557Z,102503.91
2023-02-19T22:35:57.554Z,102498.69
2023-02-19T22:38:31.500Z,102508.06
2023-02-19T22:40:58.548Z,102508.31
2023-02-19T22:43:32.576Z,102510.84
2023-02-19T22:45:59.811Z,102529.84
2023-02-19T22:48:35.004Z,102490.03
2023-02-19T22:51:02.589Z,102476.09
2023-02-19T22:53:36.526Z,102486.63
2023-02-19T22:56:03.523Z,102509.25
2023-02-19T22:58:37.524Z,102519.50
2023-02-19T23:01:11.850Z,102483.22
2023-02-19T23:03:52.512Z,102510.19
2023-02-19T23:06:24.412Z,102510.03
2023-02-19T23:09:02.205Z,102481.13
2023-02-19T23:11:39.525Z,102511.41
2023-02-19T23:14:14.684Z,102487.94
2023-02-19T23:16:50.605Z,102496.44
2023-02-19T23:19:24.509Z,102487.69
2023-02-19T23:21:52.237Z,102467.88
2023-02-19T23:24:25.664Z,102462.63
2023-02-19T23:27:00.525Z,102458.91
2023-02-19T23:29:43.941Z,102471.91
2023-02-19T23:32:19.061Z,102428.56
2023-02-19T23:34:52.538Z,102425.84
2023-02-19T23:37:27.524Z,102411.03
2023-02-19T23:39:54.797Z,102414.44
2023-02-19T23:42:28.538Z,102427.47
2023-02-19T23:44:58.855Z,102426.59
2023-02-19T23:47:33.596Z,102398.69
2023-02-19T23:50:03.999Z,102417.72
2023-02-19T23:52:40.558Z,102433.19
2023-02-19T23:55:08.047Z,102394.19
2023-02-19T23:57:41.472Z,102452.41
